Unionville, PA

6:41 AM EDT on October 01, 2014 (GMT -0400)
Dalkeith | Change Station
CLOSE
Current Station
Personal Weather Station
Location: Kennett Square, PA
Elevation: 410 ft
Nearby Weather Stations

Elev 410 ft 39.87 °N, 75.70 °W | Updated 1 minute ago

Partly Cloudy
Partly Cloudy
59.0 °F
Feels Like 59.0 °F
N
0.0
Wind Variable Wind from North

Today
High -- | Low -- °F
--% Chance of Precip.
Yesterday
High -- | Low -- °F
Precip. -- in
6:59 AM 6:45 PM
Waxing Crescent, 46% visible
Pressure 29.93 in
Visibility 1.0 miles
Clouds Overcast 100 ft
Dew Point 58 °F
Humidity 96%
Rainfall 0.00 in
Snow Depth Not available.
UV 0 out of 12
Pollen 2.90 out of 12
Air Quality Not available.
Flu Activity Not available.
METAR KMQS 300755Z AUTO 00000KT 1SM BR OVC001 18/18 A2993 RMK AO2

More Conditions Fewer Conditions

Pressure 29.93 in
Visibility 1.0 miles
Clouds Overcast 100 ft
Dew Point 58 °F
Humidity 96%
Rainfall 0.00 in
Snow Depth Not available.
UV 0 out of 12
Pollen 2.90 out of 12
Air Quality Not available.
Flu Activity Not available.
METAR KMQS 300755Z AUTO 00000KT 1SM BR OVC001 18/18 A2993 RMK AO2

More Conditions Fewer Conditions

10-Day Weather Forecast

Almanac

Astronomy

Oct. 01, 2014 Rise Set
Actual Time 6:59 AM EDT 6:45 PM EDT
Civil Twilight 6:32 AM EDT 7:12 PM EDT
Nautical Twilight 6:00 AM EDT 7:43 PM EDT
Astronomical Twilight 5:29 AM EDT 8:15 PM EDT
Moon 1:57 PM EDT No Moon Set
Length of Visible Light 12h 40m
Length of Day
11h 46m
Tomorrow will be 2m 36s shorter.
Waxing Crescent, 46% of the Moon is Illuminated
Today
Waxing Crescent
Oct 1
First Quarter
Oct 8
Full
Oct 15
Last Quarter
Oct 23
New

Today's Extremes

State Highs State Lows

Community

WunderPhotos

Upload Photos

1,757,910 photos uploaded!

WunderBlogs® & News

Nearby

Snow Depth

Station Depth Elevation
No new snow has been reported.

Earthquake Activity

City Distance Mag. Time & Date
No recent earthquake activity has been reported nearby.
Minimum magnitude displayed is 2.5.

Coastal Water Temperatures

Place Temperature
Ship John Shoal, NJ 70.0 °F
Cape May, NJ 73.0 °F
Reedy Point, DE 71.1 °F
Delaware City, DE 71.1 °F
Marcus Hook, PA 71.1 °F

Nearby Weather Stations